sensor_id;sensor_type;location;lat;lon;timestamp;pressure;altitude;pressure_sealevel;temperature;humidity
45253;BME280;63171;50.520;30.486;2023-03-13T00:00:38;100032.41;;;-0.17;77.70
45253;BME280;63171;50.520;30.486;2023-03-13T00:01:30;100034.94;;;-0.12;78.13
45253;BME280;63171;50.520;30.486;2023-03-13T00:02:21;100036.63;;;-0.11;78.21
45253;BME280;63171;50.520;30.486;2023-03-13T00:03:11;100029.72;;;-0.09;78.16
45253;BME280;63171;50.520;30.486;2023-03-13T00:04:02;100040.09;;;-0.12;77.88
45253;BME280;63171;50.520;30.486;2023-03-13T00:04:51;100038.13;;;-0.55;77.76
45253;BME280;63171;50.520;30.486;2023-03-13T00:05:42;100036.25;;;-0.44;77.96
45253;BME280;63171;50.520;30.486;2023-03-13T00:06:34;100039.53;;;-0.33;78.15
45253;BME280;63171;50.520;30.486;2023-03-13T00:07:24;100043.06;;;-0.38;77.70
45253;BME280;63171;50.520;30.486;2023-03-13T00:08:14;100034.38;;;-0.33;78.34
45253;BME280;63171;50.520;30.486;2023-03-13T00:09:08;100042.16;;;-0.36;78.33
45253;BME280;63171;50.520;30.486;2023-03-13T00:09:58;100045.97;;;-0.63;77.72
45253;BME280;63171;50.520;30.486;2023-03-13T00:10:48;100039.00;;;-0.53;78.24
45253;BME280;63171;50.520;30.486;2023-03-13T00:11:38;100033.72;;;-0.45;78.20
45253;BME280;63171;50.520;30.486;2023-03-13T00:12:28;100029.41;;;-0.45;78.01
45253;BME280;63171;50.520;30.486;2023-03-13T00:13:18;100035.38;;;-0.41;78.61
45253;BME280;63171;50.520;30.486;2023-03-13T00:14:08;100031.91;;;-0.40;78.61
45253;BME280;63171;50.520;30.486;2023-03-13T00:14:59;100033.84;;;-0.53;78.55
45253;BME280;63171;50.520;30.486;2023-03-13T00:15:49;100044.00;;;-0.45;78.69
45253;BME280;63171;50.520;30.486;2023-03-13T00:16:40;100037.94;;;-0.41;78.65
45253;BME280;63171;50.520;30.486;2023-03-13T00:17:30;100040.44;;;-0.35;78.54
45253;BME280;63171;50.520;30.486;2023-03-13T00:18:21;100032.63;;;-0.31;79.01
45253;BME280;63171;50.520;30.486;2023-03-13T00:19:11;100037.72;;;-0.27;78.68
45253;BME280;63171;50.520;30.486;2023-03-13T00:20:03;100040.31;;;-0.26;79.13
45253;BME280;63171;50.520;30.486;2023-03-13T00:20:57;100033.47;;;-0.28;78.99
45253;BME280;63171;50.520;30.486;2023-03-13T00:21:47;100036.00;;;-0.27;78.92
45253;BME280;63171;50.520;30.486;2023-03-13T00:22:37;100038.56;;;-0.27;78.84
45253;BME280;63171;50.520;30.486;2023-03-13T00:23:28;100036.06;;;-0.30;79.30
45253;BME280;63171;50.520;30.486;2023-03-13T00:24:20;100044.59;;;-0.28;79.01
45253;BME280;63171;50.520;30.486;2023-03-13T00:25:10;100043.69;;;-0.24;79.35
45253;BME280;63171;50.520;30.486;2023-03-13T00:26:02;100046.22;;;-0.21;79.19
45253;BME280;63171;50.520;30.486;2023-03-13T00:26:54;100041.03;;;-0.19;79.19
45253;BME280;63171;50.520;30.486;2023-03-13T00:27:44;100037.53;;;-0.15;79.46
45253;BME280;63171;50.520;30.486;2023-03-13T00:28:35;100038.56;;;-0.24;79.14
45253;BME280;63171;50.520;30.486;2023-03-13T00:29:26;100044.84;;;-0.45;79.30
45253;BME280;63171;50.520;30.486;2023-03-13T00:30:16;100045.63;;;-0.38;79.39
45253;BME280;63171;50.520;30.486;2023-03-13T00:31:08;100047.25;;;-0.33;79.17
45253;BME280;63171;50.520;30.486;2023-03-13T00:31:58;100048.91;;;-0.30;79.19
45253;BME280;63171;50.520;30.486;2023-03-13T00:32:49;100047.75;;;-0.66;79.33
45253;BME280;63171;50.520;30.486;2023-03-13T00:33:41;100050.22;;;-0.60;78.88
45253;BME280;63171;50.520;30.486;2023-03-13T00:34:32;100045.03;;;-0.57;79.49
45253;BME280;63171;50.520;30.486;2023-03-13T00:35:22;100049.13;;;-0.44;79.67
45253;BME280;63171;50.520;30.486;2023-03-13T00:36:14;100048.16;;;-0.35;79.38
45253;BME280;63171;50.520;30.486;2023-03-13T00:37:04;100051.56;;;-0.33;79.52
45253;BME280;63171;50.520;30.486;2023-03-13T00:37:55;100044.59;;;-0.26;79.51
45253;BME280;63171;50.520;30.486;2023-03-13T00:38:45;100057.47;;;-0.26;79.64
45253;BME280;63171;50.520;30.486;2023-03-13T00:39:37;100062.50;;;-0.20;79.91
45253;BME280;63171;50.520;30.486;2023-03-13T00:40:27;100064.31;;;-0.27;79.53
45253;BME280;63171;50.520;30.486;2023-03-13T00:41:19;100064.66;;;-0.50;79.40
45253;BME280;63171;50.520;30.486;2023-03-13T00:42:10;100056.03;;;-0.46;79.81
45253;BME280;63171;50.520;30.486;2023-03-13T00:43:00;100056.00;;;-0.44;79.66
45253;BME280;63171;50.520;30.486;2023-03-13T00:43:51;100065.56;;;-0.54;79.42
45253;BME280;63171;50.520;30.486;2023-03-13T00:44:41;100063.91;;;-0.58;79.76
45253;BME280;63171;50.520;30.486;2023-03-13T00:45:31;100059.50;;;-0.48;79.54
45253;BME280;63171;50.520;30.486;2023-03-13T00:46:24;100058.53;;;-0.40;79.59
45253;BME280;63171;50.520;30.486;2023-03-13T00:47:14;100055.03;;;-0.36;79.92
45253;BME280;63171;50.520;30.486;2023-03-13T00:48:05;100064.38;;;-0.32;80.01
45253;BME280;63171;50.520;30.486;2023-03-13T00:48:56;100062.66;;;-0.31;80.09
45253;BME280;63171;50.520;30.486;2023-03-13T00:49:47;100056.66;;;-0.32;79.79
45253;BME280;63171;50.520;30.486;2023-03-13T00:50:37;100062.59;;;-0.25;80.52
45253;BME280;63171;50.520;30.486;2023-03-13T00:51:28;100054.91;;;-0.26;80.19
45253;BME280;63171;50.520;30.486;2023-03-13T00:52:17;100058.34;;;-0.29;80.30
45253;BME280;63171;50.520;30.486;2023-03-13T00:53:08;100059.13;;;-0.24;80.47
45253;BME280;63171;50.520;30.486;2023-03-13T00:53:58;100059.16;;;-0.27;79.83
45253;BME280;63171;50.520;30.486;2023-03-13T00:54:50;100053.31;;;-0.37;80.17
45253;BME280;63171;50.520;30.486;2023-03-13T00:55:50;100059.28;;;-0.33;80.02
45253;BME280;63171;50.520;30.486;2023-03-13T00:56:41;100057.56;;;-0.34;80.11
45253;BME280;63171;50.520;30.486;2023-03-13T00:57:32;100061.81;;;-0.32;80.04
45253;BME280;63171;50.520;30.486;2023-03-13T00:58:27;100055.28;;;-0.54;79.73
45253;BME280;63171;50.520;30.486;2023-03-13T00:59:18;100053.44;;;-0.44;80.14
45253;BME280;63171;50.520;30.486;2023-03-13T01:00:09;100055.13;;;-0.43;79.96
45253;BME280;63171;50.520;30.486;2023-03-13T01:02:40;100057.97;;;-0.62;79.88
45253;BME280;63171;50.520;30.486;2023-03-13T01:03:30;100061.31;;;-0.56;80.17
45253;BME280;63171;50.520;30.486;2023-03-13T01:04:20;100056.16;;;-0.53;79.71
45253;BME280;63171;50.520;30.486;2023-03-13T01:05:13;100061.56;;;-0.75;79.81
45253;BME280;63171;50.520;30.486;2023-03-13T01:06:05;100059.88;;;-0.76;79.67
45253;BME280;63171;50.520;30.486;2023-03-13T01:06:55;100061.47;;;-0.69;79.83
45253;BME280;63171;50.520;30.486;2023-03-13T01:07:46;100064.72;;;-0.56;80.23
45253;BME280;63171;50.520;30.486;2023-03-13T01:08:36;100062.97;;;-0.51;80.20
45253;BME280;63171;50.520;30.486;2023-03-13T01:09:27;100052.59;;;-0.46;79.89
45253;BME280;63171;50.520;30.486;2023-03-13T01:10:18;100059.84;;;-0.74;79.55
45253;BME280;63171;50.520;30.486;2023-03-13T01:11:11;100057.22;;;-0.71;80.11
45253;BME280;63171;50.520;30.486;2023-03-13T01:12:00;100052.78;;;-0.60;80.17
45253;BME280;63171;50.520;30.486;2023-03-13T01:12:53;100055.31;;;-0.57;80.02
45253;BME280;63171;50.520;30.486;2023-03-13T01:13:43;100053.66;;;-0.60;79.98
45253;BME280;63171;50.520;30.486;2023-03-13T01:14:34;100052.69;;;-0.52;80.13
45253;BME280;63171;50.520;30.486;2023-03-13T01:15:23;100062.34;;;-0.67;79.65
45253;BME280;63171;50.520;30.486;2023-03-13T01:16:16;100056.25;;;-0.61;79.71
45253;BME280;63171;50.520;30.486;2023-03-13T01:17:06;100061.72;;;-0.85;79.83
45253;BME280;63171;50.520;30.486;2023-03-13T01:17:57;100065.03;;;-0.77;79.95
45253;BME280;63171;50.520;30.486;2023-03-13T01:18:48;100063.16;;;-0.65;80.14
45253;BME280;63171;50.520;30.486;2023-03-13T01:19:39;100064.69;;;-0.51;80.16
45253;BME280;63171;50.520;30.486;2023-03-13T01:20:29;100058.50;;;-0.38;80.27
45253;BME280;63171;50.520;30.486;2023-03-13T01:21:21;100054.97;;;-0.33;80.08
45253;BME280;63171;50.520;30.486;2023-03-13T01:22:11;100064.50;;;-0.38;80.21
45253;BME280;63171;50.520;30.486;2023-03-13T01:23:02;100055.22;;;-0.49;79.87
45253;BME280;63171;50.520;30.486;2023-03-13T01:23:52;100066.28;;;-0.44;79.77
45253;BME280;63171;50.520;30.486;2023-03-13T01:24:43;100063.84;;;-0.55;79.41
45253;BME280;63171;50.520;30.486;2023-03-13T01:25:36;100058.63;;;-0.47;79.73
45253;BME280;63171;50.520;30.486;2023-03-13T01:26:29;100062.03;;;-0.47;79.90
45253;BME280;63171;50.520;30.486;2023-03-13T01:27:18;100061.41;;;-0.63;79.69
45253;BME280;63171;50.520;30.486;2023-03-13T01:28:10;100065.00;;;-0.76;79.68
45253;BME280;63171;50.520;30.486;2023-03-13T01:28:59;100059.81;;;-0.73;79.79
45253;BME280;63171;50.520;30.486;2023-03-13T01:29:51;100054.63;;;-0.67;79.51
45253;BME280;63171;50.520;30.486;2023-03-13T01:30:41;100057.53;;;-0.94;79.48
45253;BME280;63171;50.520;30.486;2023-03-13T01:31:33;100062.72;;;-0.97;79.26
45253;BME280;63171;50.520;30.486;2023-03-13T01:32:24;100070.31;;;-0.88;79.51
45253;BME280;63171;50.520;30.486;2023-03-13T01:33:15;100071.84;;;-0.75;79.46
45253;BME280;63171;50.520;30.486;2023-03-13T01:34:05;100065.13;;;-0.85;79.18
45253;BME280;63171;50.520;30.486;2023-03-13T01:34:56;100065.25;;;-0.96;79.54
45253;BME280;63171;50.520;30.486;2023-03-13T01:35:48;100060.06;;;-0.90;79.64
45253;BME280;63171;50.520;30.486;2023-03-13T01:36:38;100064.16;;;-0.76;79.47
45253;BME280;63171;50.520;30.486;2023-03-13T01:37:28;100073.59;;;-0.75;79.42
45253;BME280;63171;50.520;30.486;2023-03-13T01:38:19;100074.28;;;-0.64;79.37
45253;BME280;63171;50.520;30.486;2023-03-13T01:39:09;100070.06;;;-0.67;79.66
45253;BME280;63171;50.520;30.486;2023-03-13T01:40:00;100069.19;;;-0.66;79.74
45253;BME280;63171;50.520;30.486;2023-03-13T01:40:51;100070.97;;;-0.72;79.29
45253;BME280;63171;50.520;30.486;2023-03-13T01:41:41;100071.72;;;-0.64;79.62
45253;BME280;63171;50.520;30.486;2023-03-13T01:42:53;100079.34;;;-0.58;79.25
45253;BME280;63171;50.520;30.486;2023-03-13T01:43:44;100081.06;;;-0.58;79.45
45253;BME280;63171;50.520;30.486;2023-03-13T01:44:49;100078.41;;;-0.54;79.26
45253;BME280;63171;50.520;30.486;2023-03-13T01:45:57;100079.50;;;-0.70;79.07
45253;BME280;63171;50.520;30.486;2023-03-13T01:46:51;100080.44;;;-0.76;79.30
45253;BME280;63171;50.520;30.486;2023-03-13T01:47:44;100093.38;;;-0.83;79.09
45253;BME280;63171;50.520;30.486;2023-03-13T01:48:42;100086.38;;;-0.71;79.40
45253;BME280;63171;50.520;30.486;2023-03-13T01:49:36;100097.44;;;-0.64;79.19
45253;BME280;63171;50.520;30.486;2023-03-13T01:50:30;100088.03;;;-0.65;79.03
45253;BME280;63171;50.520;30.486;2023-03-13T01:51:34;100095.69;;;-0.62;78.98
45253;BME280;63171;50.520;30.486;2023-03-13T01:52:27;100091.34;;;-0.58;79.35
45253;BME280;63171;50.520;30.486;2023-03-13T01:53:32;100099.16;;;-0.63;79.23
45253;BME280;63171;50.520;30.486;2023-03-13T01:54:28;100099.03;;;-0.57;78.94
45253;BME280;63171;50.520;30.486;2023-03-13T01:55:20;100104.19;;;-0.57;78.97
45253;BME280;63171;50.520;30.486;2023-03-13T01:56:17;100102.00;;;-0.87;78.87
45253;BME280;63171;50.520;30.486;2023-03-13T01:57:13;100104.63;;;-0.94;78.62
45253;BME280;63171;50.520;30.486;2023-03-13T01:58:06;100098.50;;;-0.82;78.60
45253;BME280;63171;50.520;30.486;2023-03-13T01:58:58;100103.53;;;-0.71;78.89
45253;BME280;63171;50.520;30.486;2023-03-13T01:59:52;100104.31;;;-0.65;79.03
45253;BME280;63171;50.520;30.486;2023-03-13T02:00:44;100110.22;;;-0.58;79.03
45253;BME280;63171;50.520;30.486;2023-03-13T02:01:35;100104.16;;;-0.55;78.98
45253;BME280;63171;50.520;30.486;2023-03-13T02:02:28;100101.56;;;-0.52;79.04
45253;BME280;63171;50.520;30.486;2023-03-13T02:03:19;100109.34;;;-0.58;78.58
45253;BME280;63171;50.520;30.486;2023-03-13T02:04:11;100116.25;;;-0.61;78.65
45253;BME280;63171;50.520;30.486;2023-03-13T02:05:05;100114.47;;;-0.57;78.63
45253;BME280;63171;50.520;30.486;2023-03-13T02:05:57;100117.00;;;-0.52;78.75
45253;BME280;63171;50.520;30.486;2023-03-13T02:06:53;100116.94;;;-0.48;78.92
45253;BME280;63171;50.520;30.486;2023-03-13T02:07:50;100124.66;;;-0.48;78.45
45253;BME280;63171;50.520;30.486;2023-03-13T02:08:47;100116.13;;;-0.50;78.33
45253;BME280;63171;50.520;30.486;2023-03-13T02:09:39;100115.25;;;-0.49;78.75
45253;BME280;63171;50.520;30.486;2023-03-13T02:10:33;100125.53;;;-0.49;78.48
45253;BME280;63171;50.520;30.486;2023-03-13T02:11:34;100119.56;;;-0.51;78.41
45253;BME280;63171;50.520;30.486;2023-03-13T02:12:30;100121.66;;;-0.82;77.71
45253;BME280;63171;50.520;30.486;2023-03-13T02:13:21;100117.38;;;-0.83;78.23
45253;BME280;63171;50.520;30.486;2023-03-13T02:14:11;100131.06;;;-0.78;77.79
45253;BME280;63171;50.520;30.486;2023-03-13T02:15:06;100136.03;;;-0.67;78.32
45253;BME280;63171;50.520;30.486;2023-03-13T02:15:56;100130.06;;;-0.69;78.21
45253;BME280;63171;50.520;30.486;2023-03-13T02:16:47;100129.19;;;-0.67;78.35
45253;BME280;63171;50.520;30.486;2023-03-13T02:17:41;100124.84;;;-0.62;78.05
45253;BME280;63171;50.520;30.486;2023-03-13T02:18:33;100134.28;;;-0.62;77.85
45253;BME280;63171;50.520;30.486;2023-03-13T02:19:29;100138.53;;;-0.61;77.89
45253;BME280;63171;50.520;30.486;2023-03-13T02:20:22;100136.00;;;-0.63;77.66
45253;BME280;63171;50.520;30.486;2023-03-13T02:21:23;100137.72;;;-0.63;78.07
45253;BME280;63171;50.520;30.486;2023-03-13T02:22:20;100134.38;;;-0.71;77.69
45253;BME280;63171;50.520;30.486;2023-03-13T02:23:18;100136.91;;;-0.67;77.49
45253;BME280;63171;50.520;30.486;2023-03-13T02:24:18;100142.06;;;-0.67;77.83
45253;BME280;63171;50.520;30.486;2023-03-13T02:25:16;100137.72;;;-0.63;77.48
45253;BME280;63171;50.520;30.486;2023-03-13T02:26:14;100137.59;;;-0.55;77.61
45253;BME280;63171;50.520;30.486;2023-03-13T02:27:04;100134.16;;;-0.51;77.46
45253;BME280;63171;50.520;30.486;2023-03-13T02:28:00;100139.41;;;-0.62;77.32
45253;BME280;63171;50.520;30.486;2023-03-13T02:28:54;100136.84;;;-0.62;77.17
45253;BME280;63171;50.520;30.486;2023-03-13T02:29:45;100140.25;;;-0.60;77.30
45253;BME280;63171;50.520;30.486;2023-03-13T02:30:36;100140.22;;;-0.58;77.61
45253;BME280;63171;50.520;30.486;2023-03-13T02:31:26;100129.94;;;-0.58;77.54
45253;BME280;63171;50.520;30.486;2023-03-13T02:32:17;100130.94;;;-0.70;77.01
45253;BME280;63171;50.520;30.486;2023-03-13T02:33:08;100130.94;;;-0.70;77.45
45253;BME280;63171;50.520;30.486;2023-03-13T02:33:59;100130.00;;;-0.63;77.49
45253;BME280;63171;50.520;30.486;2023-03-13T02:34:53;100133.34;;;-0.58;77.18
45253;BME280;63171;50.520;30.486;2023-03-13T02:35:46;100123.97;;;-0.61;77.16
45253;BME280;63171;50.520;30.486;2023-03-13T02:36:38;100136.84;;;-0.62;77.32
45253;BME280;63171;50.520;30.486;2023-03-13T02:37:29;100132.56;;;-0.62;77.35
45253;BME280;63171;50.520;30.486;2023-03-13T02:38:24;100130.84;;;-0.63;77.01
45253;BME280;63171;50.520;30.486;2023-03-13T02:39:17;100136.91;;;-0.65;76.96
45253;BME280;63171;50.520;30.486;2023-03-13T02:40:13;100134.31;;;-0.65;76.56
45253;BME280;63171;50.520;30.486;2023-03-13T02:41:05;100131.75;;;-0.65;76.70
45253;BME280;63171;50.520;30.486;2023-03-13T02:41:58;100134.28;;;-0.62;76.46
45253;BME280;63171;50.520;30.486;2023-03-13T02:42:52;100131.78;;;-0.67;76.47
45253;BME280;63171;50.520;30.486;2023-03-13T02:43:44;100135.13;;;-0.62;76.41
45253;BME280;63171;50.520;30.486;2023-03-13T02:44:37;100132.53;;;-0.60;76.66
45253;BME280;63171;50.520;30.486;2023-03-13T02:45:29;100134.28;;;-0.62;76.72
45253;BME280;63171;50.520;30.486;2023-03-13T02:46:20;100141.06;;;-0.58;76.50
45253;BME280;63171;50.520;30.486;2023-03-13T02:47:17;100137.63;;;-0.57;76.27
45253;BME280;63171;50.520;30.486;2023-03-13T02:48:07;100141.94;;;-0.59;76.73
45253;BME280;63171;50.520;30.486;2023-03-13T02:49:17;100134.34;;;-0.68;76.23
45253;BME280;63171;50.520;30.486;2023-03-13T02:50:08;100139.50;;;-0.67;76.20
45253;BME280;63171;50.520;30.486;2023-03-13T02:51:01;100144.56;;;-0.62;76.32
45253;BME280;63171;50.520;30.486;2023-03-13T02:51:53;100142.84;;;-0.62;76.23
45253;BME280;63171;50.520;30.486;2023-03-13T02:52:45;100138.50;;;-0.58;76.13
45253;BME280;63171;50.520;30.486;2023-03-13T02:53:38;100152.25;;;-0.59;75.95
45253;BME280;63171;50.520;30.486;2023-03-13T02:54:32;100145.41;;;-0.60;76.14
45253;BME280;63171;50.520;30.486;2023-03-13T02:55:25;100147.13;;;-0.62;75.79
45253;BME280;63171;50.520;30.486;2023-03-13T02:56:19;100158.34;;;-0.66;75.76
45253;BME280;63171;50.520;30.486;2023-03-13T02:57:13;100153.13;;;-0.62;75.62
45253;BME280;63171;50.520;30.486;2023-03-13T02:58:03;100154.81;;;-0.59;75.94
45253;BME280;63171;50.520;30.486;2023-03-13T02:58:57;100152.31;;;-0.64;75.39
45253;BME280;63171;50.520;30.486;2023-03-13T02:59:49;100157.44;;;-0.62;75.54
45253;BME280;63171;50.520;30.486;2023-03-13T03:00:39;100153.09;;;-0.58;75.88
45253;BME280;63171;50.520;30.486;2023-03-13T03:01:30;100165.16;;;-0.62;75.61
45253;BME280;63171;50.520;30.486;2023-03-13T03:02:19;100162.63;;;-0.67;75.54
45253;BME280;63171;50.520;30.486;2023-03-13T03:03:11;100162.66;;;-0.71;75.60
45253;BME280;63171;50.520;30.486;2023-03-13T03:04:01;100163.56;;;-0.74;75.45
45253;BME280;63171;50.520;30.486;2023-03-13T03:04:51;100158.34;;;-0.68;75.19
45253;BME280;63171;50.520;30.486;2023-03-13T03:05:41;100164.31;;;-0.64;75.21
45253;BME280;63171;50.520;30.486;2023-03-13T03:06:32;100160.06;;;-0.67;75.46
45253;BME280;63171;50.520;30.486;2023-03-13T03:07:24;100160.19;;;-0.77;75.12
45253;BME280;63171;50.520;30.486;2023-03-13T03:08:16;100164.31;;;-0.67;75.38
45253;BME280;63171;50.520;30.486;2023-03-13T03:09:05;100166.88;;;-0.64;75.41
45253;BME280;63171;50.520;30.486;2023-03-13T03:09:58;100163.56;;;-0.74;74.87
45253;BME280;63171;50.520;30.486;2023-03-13T03:10:48;100164.50;;;-0.82;74.92
45253;BME280;63171;50.520;30.486;2023-03-13T03:11:39;100169.53;;;-0.72;75.10
45253;BME280;63171;50.520;30.486;2023-03-13T03:12:35;100168.66;;;-0.71;75.30
45253;BME280;63171;50.520;30.486;2023-03-13T03:13:26;100165.31;;;-0.76;75.21
45253;BME280;63171;50.520;30.486;2023-03-13T03:14:17;100168.63;;;-0.69;74.94
45253;BME280;63171;50.520;30.486;2023-03-13T03:15:10;100167.03;;;-0.78;75.12
45253;BME280;63171;50.520;30.486;2023-03-13T03:16:07;100173.09;;;-0.85;74.70
45253;BME280;63171;50.520;30.486;2023-03-13T03:16:58;100169.66;;;-0.82;75.00
45253;BME280;63171;50.520;30.486;2023-03-13T03:17:49;100171.38;;;-0.83;74.81
45253;BME280;63171;50.520;30.486;2023-03-13T03:18:40;100174.06;;;-0.92;74.43
45253;BME280;63171;50.520;30.486;2023-03-13T03:19:29;100175.88;;;-1.03;74.61
45253;BME280;63171;50.520;30.486;2023-03-13T03:20:20;100177.53;;;-0.98;74.79
45253;BME280;63171;50.520;30.486;2023-03-13T03:21:10;100177.41;;;-0.85;74.97
45253;BME280;63171;50.520;30.486;2023-03-13T03:22:02;100172.34;;;-0.93;74.49
45253;BME280;63171;50.520;30.486;2023-03-13T03:22:52;100173.94;;;-0.83;74.89
45253;BME280;63171;50.520;30.486;2023-03-13T03:23:43;100170.56;;;-0.86;74.69
45253;BME280;63171;50.520;30.486;2023-03-13T03:24:33;100175.72;;;-0.88;74.92
45253;BME280;63171;50.520;30.486;2023-03-13T03:25:26;100174.84;;;-0.87;74.76
45253;BME280;63171;50.520;30.486;2023-03-13T03:26:17;100179.94;;;-0.84;74.84
45253;BME280;63171;50.520;30.486;2023-03-13T03:27:08;100182.47;;;-0.76;74.61
45253;BME280;63171;50.520;30.486;2023-03-13T03:28:05;100177.31;;;-0.76;74.98
45253;BME280;63171;50.520;30.486;2023-03-13T03:28:57;100182.50;;;-0.82;74.63
45253;BME280;63171;50.520;30.486;2023-03-13T03:29:46;100179.06;;;-0.80;74.53
45253;BME280;63171;50.520;30.486;2023-03-13T03:30:38;100186.84;;;-0.86;74.98
45253;BME280;63171;50.520;30.486;2023-03-13T03:31:29;100186.06;;;-0.93;74.76
45253;BME280;63171;50.520;30.486;2023-03-13T03:32:20;100191.16;;;-0.88;74.77
45253;BME280;63171;50.520;30.486;2023-03-13T03:33:09;100190.31;;;-0.90;74.86
45253;BME280;63171;50.520;30.486;2023-03-13T03:34:00;100191.13;;;-0.86;74.72
45253;BME280;63171;50.520;30.486;2023-03-13T03:34:51;100196.34;;;-0.94;74.47
45253;BME280;63171;50.520;30.486;2023-03-13T03:35:41;100190.25;;;-0.85;74.41
45253;BME280;63171;50.520;30.486;2023-03-13T03:36:32;100194.47;;;-0.77;74.77
45253;BME280;63171;50.520;30.486;2023-03-13T03:37:24;100195.28;;;-0.73;74.59
45253;BME280;63171;50.520;30.486;2023-03-13T03:38:14;100195.22;;;-0.69;74.49
45253;BME280;63171;50.520;30.486;2023-03-13T03:39:05;100199.47;;;-0.68;74.96
45253;BME280;63171;50.520;30.486;2023-03-13T03:39:55;100197.75;;;-0.67;74.62
45253;BME280;63171;50.520;30.486;2023-03-13T03:40:46;100196.06;;;-0.70;74.42
45253;BME280;63171;50.520;30.486;2023-03-13T03:41:36;100202.97;;;-0.73;74.84
45253;BME280;63171;50.520;30.486;2023-03-13T03:42:28;100196.13;;;-0.74;74.59
45253;BME280;63171;50.520;30.486;2023-03-13T03:43:19;100201.31;;;-0.77;74.31
45253;BME280;63171;50.520;30.486;2023-03-13T03:44:10;100202.19;;;-0.78;74.85
45253;BME280;63171;50.520;30.486;2023-03-13T03:45:15;100208.13;;;-0.73;74.82
45253;BME280;63171;50.520;30.486;2023-03-13T03:46:06;100208.13;;;-0.73;74.55
45253;BME280;63171;50.520;30.486;2023-03-13T03:46:57;100209.75;;;-0.65;74.74
45253;BME280;63171;50.520;30.486;2023-03-13T03:47:51;100207.25;;;-0.71;74.63
45253;BME280;63171;50.520;30.486;2023-03-13T03:48:41;100210.59;;;-0.63;74.47
45253;BME280;63171;50.520;30.486;2023-03-13T03:49:33;100216.53;;;-0.59;74.31
45253;BME280;63171;50.520;30.486;2023-03-13T03:50:23;100211.44;;;-0.62;74.84
45253;BME280;63171;50.520;30.486;2023-03-13T03:51:19;100220.00;;;-0.62;74.44
45253;BME280;63171;50.520;30.486;2023-03-13T03:52:10;100218.28;;;-0.61;74.71
45253;BME280;63171;50.520;30.486;2023-03-13T03:53:03;100217.41;;;-0.60;74.41
45253;BME280;63171;50.520;30.486;2023-03-13T03:53:53;100218.50;;;-0.79;73.80
45253;BME280;63171;50.520;30.486;2023-03-13T03:54:43;100223.03;;;-1.04;73.82
45253;BME280;63171;50.520;30.486;2023-03-13T03:55:34;100226.38;;;-0.99;73.99
45253;BME280;63171;50.520;30.486;2023-03-13T03:56:25;100226.38;;;-0.98;74.09
45253;BME280;63171;50.520;30.486;2023-03-13T03:57:18;100224.59;;;-0.90;74.32
45253;BME280;63171;50.520;30.486;2023-03-13T03:58:09;100228.81;;;-0.84;74.24
45253;BME280;63171;50.520;30.486;2023-03-13T03:59:19;100222.78;;;-0.81;74.23
45253;BME280;63171;50.520;30.486;2023-03-13T04:00:11;100222.72;;;-0.75;74.40
45253;BME280;63171;50.520;30.486;2023-03-13T04:01:05;100231.31;;;-0.76;74.08
45253;BME280;63171;50.520;30.486;2023-03-13T04:01:56;100226.19;;;-0.81;74.48
45253;BME280;63171;50.520;30.486;2023-03-13T04:02:48;100228.75;;;-0.78;74.22
45253;BME280;63171;50.520;30.486;2023-03-13T04:03:39;100228.78;;;-0.82;74.06
45253;BME280;63171;50.520;30.486;2023-03-13T04:04:29;100233.13;;;-0.86;74.02
45253;BME280;63171;50.520;30.486;2023-03-13T04:05:27;100227.91;;;-0.81;74.50
45253;BME280;63171;50.520;30.486;2023-03-13T04:06:17;100228.81;;;-0.84;74.16
45253;BME280;63171;50.520;30.486;2023-03-13T04:07:09;100233.03;;;-0.77;74.60
45253;BME280;63171;50.520;30.486;2023-03-13T04:08:01;100233.91;;;-0.81;74.36
45253;BME280;63171;50.520;30.486;2023-03-13T04:08:51;100233.94;;;-0.84;74.39
45253;BME280;63171;50.520;30.486;2023-03-13T04:09:45;100245.94;;;-0.84;74.38
45253;BME280;63171;50.520;30.486;2023-03-13T04:10:44;100245.94;;;-0.84;74.12
45253;BME280;63171;50.520;30.486;2023-03-13T04:11:35;100239.91;;;-0.82;74.43
45253;BME280;63171;50.520;30.486;2023-03-13T04:12:26;100239.81;;;-0.71;74.52
45253;BME280;63171;50.520;30.486;2023-03-13T04:13:18;100238.94;;;-0.69;74.53
45253;BME280;63171;50.520;30.486;2023-03-13T04:14:09;100236.34;;;-0.69;74.41
45253;BME280;63171;50.520;30.486;2023-03-13T04:15:00;100239.00;;;-0.75;74.36
45253;BME280;63171;50.520;30.486;2023-03-13T04:15:51;100239.91;;;-0.77;73.97
45253;BME280;63171;50.520;30.486;2023-03-13T04:16:41;100242.50;;;-0.79;74.15
45253;BME280;63171;50.520;30.486;2023-03-13T04:17:32;100244.94;;;-0.70;73.99
45253;BME280;63171;50.520;30.486;2023-03-13T04:18:22;100245.84;;;-0.72;74.32
45253;BME280;63171;50.520;30.486;2023-03-13T04:19:13;100241.53;;;-0.70;74.52
45253;BME280;63171;50.520;30.486;2023-03-13T04:20:05;100244.06;;;-0.66;74.17
45253;BME280;63171;50.520;30.486;2023-03-13T04:20:59;100247.41;;;-0.59;74.56
45253;BME280;63171;50.520;30.486;2023-03-13T04:21:50;100251.59;;;-0.49;74.68
45253;BME280;63171;50.520;30.486;2023-03-13T04:22:42;100254.06;;;-0.40;74.80
45253;BME280;63171;50.520;30.486;2023-03-13T04:23:32;100260.00;;;-0.35;74.60
45253;BME280;63171;50.520;30.486;2023-03-13T04:24:23;100254.78;;;-0.28;74.75
45253;BME280;63171;50.520;30.486;2023-03-13T04:25:12;100258.09;;;-0.19;74.84
45253;BME280;63171;50.520;30.486;2023-03-13T04:26:03;100264.06;;;-0.15;75.01
45253;BME280;63171;50.520;30.486;2023-03-13T04:26:54;100262.25;;;-0.07;74.81
45253;BME280;63171;50.520;30.486;2023-03-13T04:27:44;100261.38;;;-0.06;74.52
45253;BME280;63171;50.520;30.486;2023-03-13T04:28:34;100261.41;;;-0.08;74.50
45253;BME280;63171;50.520;30.486;2023-03-13T04:29:27;100259.50;;;0.07;74.99
45253;BME280;63171;50.520;30.486;2023-03-13T04:30:41;100267.13;;;0.13;75.09
45253;BME280;63171;50.520;30.486;2023-03-13T04:31:55;100265.22;;;0.25;74.70